KDNS/DNS METAR and TAF weather

Enter ICAO airport designator
Station Type Date Time Source
KDNS METAR 2019/08/22 03:35 UTC NOAA

KDNS 220335Z AUTO 11003KT 10SM CLR 17/17 A3010 RMK AO2


Station Type Date Time Source
KDNS Decoded METAR 2019/08/22 03:35 UTC NOAA

Station name not available
Aug 21, 2019 - 11:35 PM EDT / 2019.08.22 0335 UTC
Wind: from the ESE (110 degrees) at 3 MPH (3 KT):0
Visibility: 10 mile(s):0
Sky conditions: clear
Temperature: 62 F (17 C)
Dew Point: 62 F (17 C)
Relative Humidity: 100%
Pressure (altimeter): 30.1 in. Hg (1019 hPa)
ob: KDNS 220335Z AUTO 11003KT 10SM CLR 17/17 A3010 RMK AO2
cycle: 3

Station Type Date Time Source
KDNS TAF UTC NOAA

Error!

Example: see airport list